Data for 01/19/2009

Time Sea-Level Adjusted Pressure Absolute Pressure Temperature Relative Humidity Dew Point   
(mb) (inHg) (mb) (inHg) (C) (F) (%) (C) (F)
00:05 1035 30.56 864 25.51 -2.7 27.1 57 -10.2 13.7
00:10 1035 30.56 864 25.51 -2.7 27.1 56 -10.3 13.4
00:15 1035 30.56 865 25.54 -2.7 27.1 57 -10.2 13.6
00:20 1035 30.56 865 25.54 -2.8 27 57 -10.2 13.6
00:25 1035 30.56 865 25.54 -2.3 27.8 53 -10.7 12.8
00:30 1035 30.56 864 25.51 -1.6 29.1 49 -10.9 12.4
00:35 1035 30.56 864 25.51 -1.5 29.3 52 -10.2 13.6
00:40 1035 30.56 864 25.51 -1.9 28.6 52 -10.6 13
00:45 1035 30.56 864 25.51 -2.1 28.1 53 -10.6 13
00:50 1035 30.56 864 25.51 -2.3 27.9 54 -10.3 13.4
00:55 1035 30.56 864 25.51 -2.5 27.5 54 -10.6 12.9
01:00 1035 30.56 864 25.51 -2.5 27.5 54 -10.6 12.9
01:05 1035 30.56 864 25.51 -2.6 27.4 53 -10.8 12.6
01:10 1035 30.56 864 25.51 -2.5 27.5 54 -10.7 12.7
01:15 1035 30.56 864 25.51 -2.4 27.7 52 -10.9 12.3
01:20 1035 30.56 864 25.51 -2.5 27.6 54 -10.6 12.9
01:25 1035 30.56 864 25.51 -2.8 27 55 -10.6 12.9
01:30 1035 30.56 864 25.51 -3.1 26.4 55 -10.9 12.4
01:35 1035 30.56 864 25.51 -2.8 26.9 54 -10.9 12.5
01:40 1035 30.56 864 25.51 -2.8 26.9 54 -10.8 12.5
01:45 1035 30.56 864 25.51 -2.7 27.2 53 -10.9 12.4
01:50 1035 30.56 864 25.51 -2.9 26.9 55 -10.7 12.7
01:55 1035 30.56 864 25.51 -3 26.6 56 -10.6 12.8
02:00 1035 30.56 864 25.51 -2.9 26.8 55 -10.6 12.9
02:05 1035 30.56 864 25.51 -2.5 27.5 52 -11 12.3
02:10 1035 30.56 864 25.51 -2.3 27.8 53 -10.8 12.6
02:15 1035 30.56 865 25.54 -2.6 27.3 53 -10.8 12.5
02:20 1035 30.56 865 25.54 -2.9 26.7 55 -10.7 12.7
02:25 1035 30.56 865 25.54 -3.1 26.5 55 -10.8 12.6
02:30 1036 30.59 865 25.54 -3 26.6 54 -10.9 12.3
02:35 1036 30.59 865 25.54 -2.9 26.8 55 -10.8 12.6
02:40 1035 30.56 865 25.54 -2.8 27 54 -11 12.3
02:45 1035 30.56 865 25.54 -2.3 27.9 51 -11 12.1
02:50 1035 30.56 865 25.54 -1.6 29.1 49 -10.9 12.3
02:55 1035 30.56 865 25.54 -2.1 28.3 53 -10.4 13.3
03:00 1035 30.56 865 25.54 -2.7 27.2 53 -10.9 12.3
03:05 1035 30.56 865 25.54 -2.6 27.3 52 -11.2 11.8
03:10 1035 30.56 864 25.51 -2.5 27.4 54 -10.6 13
03:15 1035 30.56 864 25.51 -3.7 25.4 57 -11 12.2
03:20 1035 30.56 864 25.51 -3.6 25.6 56 -11 12.2
03:25 1035 30.56 864 25.51 -3.6 25.5 57 -10.9 12.3
03:30 1035 30.56 864 25.51 -3.9 25 59 -10.7 12.7
03:35 1035 30.56 864 25.51 -4 24.7 58 -11.2 11.9
03:40 1035 30.56 864 25.51 -3.8 25.1 56 -11.3 11.7
03:45 1035 30.56 865 25.54 -3.4 25.8 55 -11.1 12
03:50 1035 30.56 864 25.51 -3.6 25.6 57 -10.9 12.4
03:55 1035 30.56 864 25.51 -3.6 25.5 56 -11.3 11.7
04:00 1035 30.56 865 25.54 -3.2 26.3 54 -11.2 11.8
04:05 1035 30.56 864 25.51 -3.3 26.1 56 -10.9 12.4
04:10 1035 30.56 864 25.51 -3.3 26.1 54 -11.2 11.8
04:15 1035 30.56 864 25.51 -3.6 25.5 57 -11 12.2
04:20 1035 30.56 864 25.51 -3.3 26.1 53 -11.7 11
04:25 1035 30.56 864 25.51 -2.6 27.3 52 -11.2 11.8
04:30 1035 30.56 864 25.51 -2.7 27.2 53 -11 12.2
04:35 1035 30.56 864 25.51 -2.7 27.2 52 -11.2 11.8
04:40 1035 30.56 864 25.51 -2 28.4 50 -11 12.1
04:45 1035 30.56 864 25.51 -2.2 28 51 -10.9 12.3
04:50 1035 30.56 864 25.51 -2.5 27.5 52 -11 12.2
04:55 1035 30.56 864 25.51 -3.1 26.4 54 -11 12.2
05:00 1035 30.56 864 25.51 -3.4 25.9 55 -11.2 11.8
05:05 1035 30.56 864 25.51 -3.5 25.7 56 -11.1 12
05:10 1035 30.56 865 25.54 -3.6 25.6 56 -11.1 12
05:15 1035 30.56 865 25.54 -3.6 25.5 56 -11.2 11.9
05:20 1035 30.56 864 25.51 -3.9 25 57 -11.2 11.9
05:25 1035 30.56 864 25.51 -3.8 25.2 56 -11.2 11.8
05:30 1035 30.56 864 25.51 -3.8 25.1 58 -10.9 12.4
05:35 1035 30.56 864 25.51 -4.1 24.6 57 -11.3 11.6
05:40 1035 30.56 865 25.54 -4.4 24.2 59 -11.2 11.8
05:45 1035 30.56 864 25.51 -4.4 24.1 58 -11.4 11.5
05:50 1035 30.56 864 25.51 -4.1 24.7 57 -11.3 11.7
05:55 1035 30.56 864 25.51 -4 24.8 57 -11.2 11.8
06:00 1035 30.56 864 25.51 -4.3 24.3 58 -11.3 11.7
06:05 1035 30.56 864 25.51 -4.6 23.7 59 -11.4 11.5
06:10 1035 30.56 864 25.51 -4.6 23.8 59 -11.4 11.4
06:15 1035 30.56 864 25.51 -4.6 23.7 59 -11.5 11.4
06:20 1035 30.56 864 25.51 -4.7 23.5 59 -11.5 11.3
06:25 1035 30.56 864 25.51 -4.9 23.2 60 -11.5 11.3
06:30 1035 30.56 864 25.51 -5.1 22.8 62 -11.2 11.8
06:35 1035 30.56 864 25.51 -5.1 22.8 61 -11.4 11.4
06:40 1035 30.56 864 25.51 -4.8 23.3 60 -11.4 11.6
06:45 1035 30.56 864 25.51 -4.5 23.9 59 -11.4 11.5
06:50 1035 30.56 864 25.51 -4 24.8 57 -11.3 11.6
06:55 1035 30.56 864 25.51 -3.5 25.7 55 -11.3 11.6
07:00 1035 30.56 864 25.51 -3 26.6 53 -11.2 11.8
07:05 1035 30.56 864 25.51 -2.9 26.7 52 -11.4 11.5
07:10 1035 30.56 864 25.51 -3.2 26.3 55 -11.1 12.1
07:15 1035 30.56 864 25.51 -3.5 25.7 55 -11.2 11.9
07:20 1035 30.56 864 25.51 -4.2 24.5 58 -11.3 11.6
07:25 1035 30.56 864 25.51 -4.3 24.2 57 -11.6 11.1
07:30 1035 30.56 864 25.51 -4.2 24.4 58 -11.4 11.4
07:35 1035 30.56 864 25.51 -4.3 24.3 57 -11.5 11.3
07:40 1035 30.56 864 25.51 -4.2 24.4 57 -11.4 11.4
07:45 1035 30.56 864 25.51 -4.5 23.8 59 -11.4 11.4
07:50 1035 30.56 864 25.51 -4.7 23.5 59 -11.7 11
07:55 1035 30.56 864 25.51 -4.9 23.2 60 -11.5 11.2
08:00 1035 30.56 864 25.51 -4.9 23.1 59 -11.8 10.8
08:05 1035 30.56 864 25.51 -4.8 23.4 59 -11.6 11.1
08:10 1035 30.56 864 25.51 -4.7 23.6 59 -11.6 11.2
08:15 1035 30.56 864 25.51 -4.6 23.7 58 -11.6 11.2
08:20 1035 30.56 865 25.54 -4.3 24.2 56 -11.8 10.8
08:25 1035 30.56 865 25.54 -3.7 25.4 54 -11.7 10.9
08:30 1035 30.56 865 25.54 -3.6 25.6 55 -11.3 11.6
08:35 1035 30.56 865 25.54 -3.9 25 55 -11.7 10.9
08:40 1036 30.59 865 25.54 -3.9 25 55 -11.7 10.9
08:45 1036 30.59 865 25.54 -3.6 25.5 54 -11.7 10.9
08:50 1036 30.59 865 25.54 -3 26.5 52 -11.6 11.1
08:55 1036 30.59 865 25.54 -2.2 28.1 50 -11.2 11.8
09:00 1036 30.59 865 25.54 -1.6 29.2 48 -11.1 12
09:05 1036 30.59 865 25.54 -1.6 29.1 49 -11 12.3
09:10 1036 30.59 865 25.54 -2.3 27.8 50 -11.3 11.6
09:15 1036 30.59 865 25.54 -2.3 27.9 51 -11.1 11.9
09:20 1036 30.59 865 25.54 -2.6 27.4 52 -11.2 11.9
09:25 1036 30.59 865 25.54 -2.7 27.1 53 -10.9 12.3
09:30 1036 30.59 865 25.54 -2.6 27.3 52 -11.3 11.7
09:35 1036 30.59 865 25.54 -2.3 27.9 50 -11.3 11.7
09:40 1036 30.59 865 25.54 -1.3 29.7 48 -11 12.2
09:45 1036 30.59 865 25.54 -1.1 30.1 47 -11.1 12
09:50 1036 30.59 865 25.54 -1.5 29.3 48 -11 12.1
09:55 1036 30.59 865 25.54 -1.8 28.7 49 -11.1 12
10:00 1036 30.59 865 25.54 -1.1 30 45 -11.5 11.3
10:05 1036 30.59 865 25.54 -0.2 31.7 43 -11.3 11.6
10:10 1036 30.59 865 25.54 0.4 32.7 42 -11 12.2
10:15 1036 30.59 865 25.54 -0.1 31.8 45 -10.7 12.7
10:20 1036 30.59 865 25.54 -0.1 31.8 44 -11 12.2
10:25 1036 30.59 865 25.54 0.5 32.9 42 -11 12.2
10:30 1036 30.59 865 25.54 0.9 33.7 40 -11.1 12
10:35 1036 30.59 865 25.54 1 33.8 41 -10.8 12.5
10:40 1036 30.59 865 25.54 1.2 34.2 39 -11.1 12
10:45 1036 30.59 865 25.54 1.3 34.4 39 -11.1 12.1
10:50 1036 30.59 865 25.54 1.4 34.5 41 -10.5 13.1
10:55 1036 30.59 865 25.54 1.4 34.4 42 -10.3 13.5
11:00 1036 30.59 865 25.54 1.8 35.2 42 -9.9 14.2
11:05 1036 30.59 865 25.54 1.8 35.3 41 -10.1 13.8
11:10 1036 30.59 865 25.54 1.9 35.5 41 -10.1 13.8
11:15 1036 30.59 865 25.54 2.4 36.2 41 -9.6 14.7
11:20 1036 30.59 865 25.54 2.3 36.2 41 -9.7 14.6
11:25 1036 30.59 865 25.54 2.3 36.1 39 -10.2 13.7
11:30 1035 30.56 865 25.54 2.5 36.5 39 -10.1 13.9
11:35 1035 30.56 865 25.54 2.8 37.1 38 -10 14
11:40 1035 30.56 865 25.54 3.1 37.6 38 -9.9 14.2
11:45 1035 30.56 865 25.54 3.1 37.6 37 -10.2 13.7
11:50 1035 30.56 865 25.54 3 37.3 39 -9.8 14.3
11:55 1035 30.56 865 25.54 2.6 36.7 42 -9.2 15.5
12:00 1035 30.56 865 25.54 2.7 36.9 41 -9.2 15.4
12:05 1035 30.56 864 25.51 3 37.4 39 -9.6 14.8
12:10 1035 30.56 864 25.51 3.4 38.1 39 -9.5 15
12:15 1035 30.56 864 25.51 3.2 37.8 40 -9.2 15.5
12:20 1035 30.56 864 25.51 3 37.4 40 -9.4 15.1
12:25 1035 30.56 864 25.51 3.9 39 37 -9.4 15
12:30 1035 30.56 864 25.51 3.7 38.7 38 -9.2 15.4
12:35 1035 30.56 864 25.51 3.7 38.7 37 -9.8 14.4
12:40 1035 30.56 864 25.51 4.1 39.3 37 -9.5 14.9
12:45 1035 30.56 864 25.51 3.6 38.5 40 -8.8 16.1
12:50 1035 30.56 864 25.51 4 39.1 37 -9.5 14.8
12:55 1035 30.56 864 25.51 3.9 39.1 37 -9.4 15.1
13:00 1034 30.53 864 25.51 4.3 39.8 35 -9.8 14.4
13:05 1034 30.53 864 25.51 3.9 39 36 -9.8 14.3
13:10 1034 30.53 863 25.48 4.2 39.6 33 -10.8 12.6
13:15 1034 30.53 863 25.48 4.9 40.8 32 -10.4 13.3
13:20 1034 30.53 863 25.48 5 41 33 -10 14
13:25 1034 30.53 863 25.48 5.2 41.4 34 -9.5 14.8
13:30 1034 30.53 863 25.48 5.2 41.4 35 -9.1 15.7
13:35 1034 30.53 863 25.48 5.1 41.1 34 -9.5 14.9
13:40 1034 30.53 863 25.48 4.5 40.2 38 -8.5 16.7
13:45 1034 30.53 863 25.48 4.8 40.6 36 -8.9 16
13:50 1034 30.53 863 25.48 5.1 41.1 39 -7.8 18
13:55 1034 30.53 863 25.48 5.1 41.3 37 -8.2 17.2
14:00 1034 30.53 863 25.48 5.7 42.2 35 -8.5 16.7
14:05 1034 30.53 863 25.48 6.2 43.1 34 -8.5 16.6
14:10 1034 30.53 863 25.48 6.2 43.1 35 -8.3 17.1
14:15 1034 30.53 863 25.48 6.1 42.9 35 -8.3 17.1
14:20 1033 30.5 863 25.48 6.5 43.7 34 -8.3 17
14:25 1033 30.5 863 25.48 6.6 43.9 34 -8.3 17.1
14:30 1033 30.5 863 25.48 6.6 43.9 34 -8.2 17.2
14:35 1033 30.5 863 25.48 6.2 43.2 34 -8.7 16.4
14:40 1033 30.5 863 25.48 6.3 43.4 33 -8.6 16.5
14:45 1033 30.5 862 25.45 6.6 43.8 33 -8.6 16.6
14:50 1033 30.5 862 25.45 5.7 42.2 36 -8.3 17
14:55 1033 30.5 862 25.45 5.8 42.5 34 -9 15.9
15:00 1033 30.5 862 25.45 6 42.8 34 -8.8 16.2
15:05 1033 30.5 862 25.45 6.5 43.7 33 -8.8 16.2
15:10 1033 30.5 862 25.45 6.5 43.7 33 -8.5 16.8
15:15 1033 30.5 862 25.45 6.6 43.8 33 -8.5 16.8
15:20 1033 30.5 862 25.45 6.7 44.1 33 -8.5 16.7
15:25 1033 30.5 862 25.45 6.5 43.7 33 -8.5 16.7
15:30 1033 30.5 862 25.45 6.5 43.7 33 -8.5 16.8
15:35 1033 30.5 862 25.45 6.2 43.2 36 -7.8 18
15:40 1033 30.5 862 25.45 5.7 42.2 36 -8.3 17.1
15:45 1033 30.5 862 25.45 6.1 43 35 -8.4 17
15:50 1033 30.5 862 25.45 6 42.9 36 -8 17.5
15:55 1033 30.5 862 25.45 5.5 42 41 -6.8 19.8
16:00 1033 30.5 862 25.45 4.3 39.8 44 -6.9 19.6
16:05 1033 30.5 862 25.45 4 39.2 44 -7.2 19
16:10 1033 30.5 862 25.45 4.7 40.4 42 -7.2 19.1
16:15 1033 30.5 862 25.45 5 41.1 42 -6.9 19.5
16:20 1033 30.5 862 25.45 5.2 41.4 40 -7.2 19.1
16:25 1033 30.5 862 25.45 5.3 41.6 41 -6.9 19.5
16:30 1033 30.5 862 25.45 5.5 41.8 41 -6.8 19.7
16:35 1033 30.5 862 25.45 5.6 42 40 -6.9 19.5
16:40 1033 30.5 862 25.45 5.4 41.8 40 -7 19.5
16:45 1033 30.5 862 25.45 5.2 41.3 42 -6.8 19.7
16:50 1033 30.5 862 25.45 4.5 40.1 43 -6.9 19.6
16:55 1033 30.5 862 25.45 3.9 39.1 46 -6.7 20
17:00 1033 30.5 862 25.45 3.3 38 47 -6.8 19.7
17:05 1033 30.5 862 25.45 2.7 36.9 49 -7 19.5
17:10 1033 30.5 862 25.45 2.1 35.7 51 -6.9 19.5
17:15 1033 30.5 862 25.45 1.7 35 53 -7 19.4
17:20 1033 30.5 862 25.45 1.4 34.6 53 -7.1 19.2
17:25 1033 30.5 862 25.45 1.3 34.3 53 -7.1 19.1
17:30 1033 30.5 862 25.45 1.3 34.3 53 -7.3 18.9
17:35 1033 30.5 862 25.45 1.3 34.3 52 -7.4 18.7
17:40 1033 30.5 862 25.45 1.3 34.3 52 -7.4 18.6
17:45 1033 30.5 862 25.45 1.3 34.3 51 -7.7 18.1
17:50 1033 30.5 862 25.45 1.1 34 53 -7.5 18.5
17:55 1033 30.5 862 25.45 0.8 33.5 52 -8 17.6
18:00 1033 30.5 862 25.45 0.6 33 51 -8.4 16.9
18:05 1033 30.5 862 25.45 0.7 33.2 51 -8.4 17
18:10 1033 30.5 862 25.45 0.5 32.9 50 -8.7 16.3
18:15 1033 30.5 862 25.45 0.4 32.7 52 -8.5 16.7
18:20 1033 30.5 862 25.45 0.2 32.3 51 -8.8 16.2
18:25 1033 30.5 862 25.45 0.2 32.4 51 -8.6 16.5
18:30 1033 30.5 862 25.45 0.2 32.3 47 -9.8 14.3
18:35 1033 30.5 862 25.45 -0 31.9 48 -9.8 14.3
18:40 1033 30.5 862 25.45 0 32.1 45 -10.6 13
18:45 1032 30.47 862 25.45 -0.1 31.7 48 -9.8 14.4
18:50 1032 30.47 862 25.45 -0 31.9 47 -10 14
18:55 1032 30.47 862 25.45 0.4 32.7 47 -9.7 14.6
19:00 1032 30.47 862 25.45 0.3 32.6 48 -9.4 15
19:05 1032 30.47 862 25.45 0.1 32.2 46 -10.1 13.9
19:10 1032 30.47 862 25.45 0 32.1 50 -9.3 15.3
19:15 1032 30.47 862 25.45 -0.5 31.1 49 -10 14
19:20 1032 30.47 862 25.45 -0.6 30.9 49 -10.1 13.8
19:25 1032 30.47 862 25.45 -0.6 30.9 48 -10.3 13.5
19:30 1032 30.47 862 25.45 -0.5 31 48 -10.2 13.6
19:35 1032 30.47 862 25.45 -0.6 31 47 -10.5 13.1
19:40 1032 30.47 862 25.45 -0.7 30.8 47 -10.6 12.9
19:45 1032 30.47 862 25.45 -0.6 30.8 47 -10.6 12.9
19:50 1032 30.47 862 25.45 -0.6 31 46 -10.8 12.5
19:55 1032 30.47 862 25.45 -0.6 30.8 45 -11.1 11.9
20:00 1032 30.47 862 25.45 -0.8 30.5 46 -11.1 12.1
20:05 1032 30.47 862 25.45 -0.8 30.6 45 -11.3 11.7
20:10 1032 30.47 862 25.45 -0.8 30.5 46 -11.1 12
20:15 1032 30.47 862 25.45 -0.8 30.6 44 -11.5 11.3
20:20 1032 30.47 861 25.43 -0.5 31.1 44 -11.3 11.6
20:25 1032 30.47 861 25.43 -0.8 30.5 46 -10.9 12.3
20:30 1032 30.47 861 25.43 -1.6 29.1 48 -11.2 11.9
20:35 1032 30.47 861 25.43 -1.6 29.1 45 -12 10.5
20:40 1032 30.47 861 25.43 -1.5 29.3 47 -11.5 11.3
20:45 1032 30.47 861 25.43 -1.5 29.3 46 -11.7 10.9
20:50 1032 30.47 861 25.43 -1.2 29.8 48 -11 12.3
20:55 1032 30.47 861 25.43 -1.6 29.2 48 -11.2 11.9
21:00 1032 30.47 861 25.43 -2.1 28.3 49 -11.5 11.3
21:05 1032 30.47 861 25.43 -1.9 28.5 47 -11.9 10.5
21:10 1032 30.47 861 25.43 -1.8 28.7 47 -11.6 11.1
21:15 1032 30.47 861 25.43 -1.2 29.8 43 -12.2 10.1
21:20 1032 30.47 861 25.43 -0.8 30.5 42 -12.1 10.1
21:25 1032 30.47 861 25.43 -0.5 31.1 41 -12.1 10.2
21:30 1032 30.47 861 25.43 -0.2 31.7 39 -12.4 9.6
21:35 1032 30.47 861 25.43 -0.8 30.5 44 -11.5 11.3
21:40 1032 30.47 861 25.43 -1.9 28.6 49 -11.4 11.5
21:45 1032 30.47 861 25.43 -2.4 27.7 50 -11.4 11.5
21:50 1032 30.47 861 25.43 -2.6 27.3 47 -12.4 9.7
21:55 1032 30.47 861 25.43 -1.4 29.6 41 -13 8.6
22:00 1032 30.47 861 25.43 -0.7 30.7 39 -13.1 8.4
22:05 1032 30.47 861 25.43 -0.9 30.3 42 -12.3 9.9
22:10 1032 30.47 861 25.43 -2.2 28 46 -12.2 10
22:15 1032 30.47 861 25.43 -2.4 27.7 47 -12.4 9.7
22:20 1032 30.47 861 25.43 -2.5 27.5 47 -12.3 9.9
22:25 1032 30.47 861 25.43 -2.5 27.5 47 -12.4 9.7
22:30 1032 30.47 861 25.43 -2.5 27.6 47 -12.3 9.8
22:35 1032 30.47 861 25.43 -2.3 27.9 46 -12.5 9.4
22:40 1032 30.47 861 25.43 -2.1 28.2 46 -12.2 10.1
22:45 1032 30.47 861 25.43 -2.2 28.1 46 -12.3 9.9
22:50 1032 30.47 861 25.43 -1.9 28.5 44 -12.6 9.4
22:55 1032 30.47 861 25.43 -1.8 28.8 42 -12.9 8.7
23:00 1032 30.47 861 25.43 -1.8 28.8 45 -12.2 10.1
23:05 1032 30.47 861 25.43 -1.9 28.5 45 -12.5 9.5
23:10 1032 30.47 861 25.43 -2.4 27.7 46 -12.4 9.6
23:15 1032 30.47 861 25.43 -3 26.7 48 -12.5 9.5
23:20 1032 30.47 861 25.43 -2.8 27 48 -12.4 9.7
23:25 1032 30.47 861 25.43 -2.5 27.5 44 -13.2 8.2
23:30 1032 30.47 861 25.43 -2.1 28.2 43 -13.2 8.2
23:35 1032 30.47 861 25.43 -2.2 28.1 43 -13.1 8.5
23:40 1032 30.47 861 25.43 -2.5 27.4 45 -13.1 8.5
23:45 1032 30.47 861 25.43 -2.6 27.3 45 -12.9 8.8
23:50 1032 30.47 861 25.43 -2.7 27.1 48 -12.4 9.6
23:55 1032 30.47 861 25.43 -2.9 26.8 48 -12.5 9.5
24:00 1032 30.47 861 25.43 -3.1 26.4 48 -12.6 9.3